sensor_id;sensor_type;location;lat;lon;timestamp;P1;durP1;ratioP1;P2;durP2;ratioP2
19919;SDS011;10122;50.074;19.920;2022-11-20T00:00:00;80.77;;;31.67;;
19919;SDS011;10122;50.074;19.920;2022-11-20T00:02:26;78.87;;;31.33;;
19919;SDS011;10122;50.074;19.920;2022-11-20T00:04:51;85.23;;;31.70;;
19919;SDS011;10122;50.074;19.920;2022-11-20T00:07:17;77.43;;;31.07;;
19919;SDS011;10122;50.074;19.920;2022-11-20T00:09:42;80.90;;;32.13;;
19919;SDS011;10122;50.074;19.920;2022-11-20T00:12:08;79.53;;;31.93;;
19919;SDS011;10122;50.074;19.920;2022-11-20T00:14:34;83.60;;;32.43;;
19919;SDS011;10122;50.074;19.920;2022-11-20T00:16:59;80.27;;;33.23;;
19919;SDS011;10122;50.074;19.920;2022-11-20T00:19:25;76.00;;;32.00;;
19919;SDS011;10122;50.074;19.920;2022-11-20T00:21:51;79.50;;;32.93;;
19919;SDS011;10122;50.074;19.920;2022-11-20T00:24:18;86.13;;;32.20;;
19919;SDS011;10122;50.074;19.920;2022-11-20T00:26:44;80.60;;;32.63;;
19919;SDS011;10122;50.074;19.920;2022-11-20T00:29:10;77.10;;;31.40;;
19919;SDS011;10122;50.074;19.920;2022-11-20T00:31:35;80.80;;;31.93;;
19919;SDS011;10122;50.074;19.920;2022-11-20T00:34:01;80.40;;;30.73;;
19919;SDS011;10122;50.074;19.920;2022-11-20T00:36:27;76.07;;;31.67;;
19919;SDS011;10122;50.074;19.920;2022-11-20T00:38:54;77.20;;;31.83;;
19919;SDS011;10122;50.074;19.920;2022-11-20T00:41:22;83.97;;;31.53;;
19919;SDS011;10122;50.074;19.920;2022-11-20T00:43:48;72.50;;;30.43;;
19919;SDS011;10122;50.074;19.920;2022-11-20T00:46:18;78.27;;;31.07;;
19919;SDS011;10122;50.074;19.920;2022-11-20T00:48:45;75.87;;;30.20;;
19919;SDS011;10122;50.074;19.920;2022-11-20T00:51:12;76.03;;;29.53;;
19919;SDS011;10122;50.074;19.920;2022-11-20T00:53:39;69.83;;;29.20;;
19919;SDS011;10122;50.074;19.920;2022-11-20T00:56:06;74.33;;;30.37;;
19919;SDS011;10122;50.074;19.920;2022-11-20T00:58:35;76.40;;;29.97;;
19919;SDS011;10122;50.074;19.920;2022-11-20T01:01:03;72.70;;;28.63;;
19919;SDS011;10122;50.074;19.920;2022-11-20T01:03:38;66.67;;;27.73;;
19919;SDS011;10122;50.074;19.920;2022-11-20T01:06:06;69.60;;;28.63;;
19919;SDS011;10122;50.074;19.920;2022-11-20T01:08:38;66.77;;;26.47;;
19919;SDS011;10122;50.074;19.920;2022-11-20T01:11:05;70.60;;;28.77;;
19919;SDS011;10122;50.074;19.920;2022-11-20T01:13:42;66.80;;;28.13;;
19919;SDS011;10122;50.074;19.920;2022-11-20T01:16:14;65.07;;;27.43;;
19919;SDS011;10122;50.074;19.920;2022-11-20T01:18:43;66.97;;;28.37;;
19919;SDS011;10122;50.074;19.920;2022-11-20T01:21:11;68.20;;;27.23;;
19919;SDS011;10122;50.074;19.920;2022-11-20T01:23:39;66.23;;;27.07;;
19919;SDS011;10122;50.074;19.920;2022-11-20T01:26:08;64.80;;;27.90;;
19919;SDS011;10122;50.074;19.920;2022-11-20T01:28:35;67.80;;;28.00;;
19919;SDS011;10122;50.074;19.920;2022-11-20T01:31:01;62.50;;;26.73;;
19919;SDS011;10122;50.074;19.920;2022-11-20T01:33:36;65.37;;;27.80;;
19919;SDS011;10122;50.074;19.920;2022-11-20T01:36:03;69.33;;;28.20;;
19919;SDS011;10122;50.074;19.920;2022-11-20T01:38:30;68.37;;;27.30;;
19919;SDS011;10122;50.074;19.920;2022-11-20T01:40:56;67.13;;;26.57;;
19919;SDS011;10122;50.074;19.920;2022-11-20T01:43:22;63.73;;;27.73;;
19919;SDS011;10122;50.074;19.920;2022-11-20T01:48:15;65.73;;;27.17;;
19919;SDS011;10122;50.074;19.920;2022-11-20T01:50:42;63.90;;;26.37;;
19919;SDS011;10122;50.074;19.920;2022-11-20T01:53:09;65.13;;;26.23;;
19919;SDS011;10122;50.074;19.920;2022-11-20T01:55:44;63.57;;;26.40;;
19919;SDS011;10122;50.074;19.920;2022-11-20T01:58:16;65.43;;;26.33;;
19919;SDS011;10122;50.074;19.920;2022-11-20T02:00:46;68.50;;;27.30;;
19919;SDS011;10122;50.074;19.920;2022-11-20T02:03:13;69.13;;;28.07;;
19919;SDS011;10122;50.074;19.920;2022-11-20T02:08:23;64.03;;;26.20;;
19919;SDS011;10122;50.074;19.920;2022-11-20T02:10:49;64.80;;;26.50;;
19919;SDS011;10122;50.074;19.920;2022-11-20T02:13:14;65.67;;;27.40;;
19919;SDS011;10122;50.074;19.920;2022-11-20T02:15:59;59.27;;;25.57;;
19919;SDS011;10122;50.074;19.920;2022-11-20T02:18:25;64.67;;;26.17;;
19919;SDS011;10122;50.074;19.920;2022-11-20T02:20:53;59.80;;;26.23;;
19919;SDS011;10122;50.074;19.920;2022-11-20T02:23:38;62.27;;;25.90;;
19919;SDS011;10122;50.074;19.920;2022-11-20T02:26:09;65.17;;;26.63;;
19919;SDS011;10122;50.074;19.920;2022-11-20T02:28:39;72.90;;;27.37;;
19919;SDS011;10122;50.074;19.920;2022-11-20T02:31:04;67.17;;;26.37;;
19919;SDS011;10122;50.074;19.920;2022-11-20T02:33:30;64.93;;;26.87;;
19919;SDS011;10122;50.074;19.920;2022-11-20T02:35:56;69.37;;;27.43;;
19919;SDS011;10122;50.074;19.920;2022-11-20T02:38:21;66.77;;;27.83;;
19919;SDS011;10122;50.074;19.920;2022-11-20T02:40:47;63.67;;;27.53;;
19919;SDS011;10122;50.074;19.920;2022-11-20T02:43:13;69.07;;;28.27;;
19919;SDS011;10122;50.074;19.920;2022-11-20T02:45:40;66.17;;;27.07;;
19919;SDS011;10122;50.074;19.920;2022-11-20T02:48:06;68.57;;;27.97;;
19919;SDS011;10122;50.074;19.920;2022-11-20T02:50:32;66.73;;;27.93;;
19919;SDS011;10122;50.074;19.920;2022-11-20T02:52:58;68.53;;;27.37;;
19919;SDS011;10122;50.074;19.920;2022-11-20T02:55:23;66.67;;;27.23;;
19919;SDS011;10122;50.074;19.920;2022-11-20T02:57:49;66.17;;;27.23;;
19919;SDS011;10122;50.074;19.920;2022-11-20T03:00:15;71.43;;;28.33;;
19919;SDS011;10122;50.074;19.920;2022-11-20T03:02:40;63.83;;;26.83;;
19919;SDS011;10122;50.074;19.920;2022-11-20T03:05:06;65.23;;;26.90;;
19919;SDS011;10122;50.074;19.920;2022-11-20T03:07:32;66.87;;;27.93;;
19919;SDS011;10122;50.074;19.920;2022-11-20T03:09:57;65.93;;;28.47;;
19919;SDS011;10122;50.074;19.920;2022-11-20T03:12:23;68.70;;;28.27;;
19919;SDS011;10122;50.074;19.920;2022-11-20T03:14:49;66.57;;;27.50;;
19919;SDS011;10122;50.074;19.920;2022-11-20T03:17:15;66.37;;;27.70;;
19919;SDS011;10122;50.074;19.920;2022-11-20T03:19:41;68.33;;;27.00;;
19919;SDS011;10122;50.074;19.920;2022-11-20T03:22:07;68.70;;;27.87;;
19919;SDS011;10122;50.074;19.920;2022-11-20T03:24:32;66.97;;;26.93;;
19919;SDS011;10122;50.074;19.920;2022-11-20T03:26:58;69.97;;;27.60;;
19919;SDS011;10122;50.074;19.920;2022-11-20T03:29:24;69.37;;;25.87;;
19919;SDS011;10122;50.074;19.920;2022-11-20T03:31:50;64.93;;;26.13;;
19919;SDS011;10122;50.074;19.920;2022-11-20T03:34:15;69.67;;;27.23;;
19919;SDS011;10122;50.074;19.920;2022-11-20T03:36:43;67.60;;;27.57;;
19919;SDS011;10122;50.074;19.920;2022-11-20T03:39:08;67.93;;;26.93;;
19919;SDS011;10122;50.074;19.920;2022-11-20T03:41:38;66.03;;;25.47;;
19919;SDS011;10122;50.074;19.920;2022-11-20T03:44:05;63.47;;;26.43;;
19919;SDS011;10122;50.074;19.920;2022-11-20T03:46:33;67.03;;;26.97;;
19919;SDS011;10122;50.074;19.920;2022-11-20T03:48:59;66.47;;;26.73;;
19919;SDS011;10122;50.074;19.920;2022-11-20T03:51:26;65.43;;;26.17;;
19919;SDS011;10122;50.074;19.920;2022-11-20T03:53:54;62.83;;;25.37;;
19919;SDS011;10122;50.074;19.920;2022-11-20T03:56:31;60.17;;;25.57;;
19919;SDS011;10122;50.074;19.920;2022-11-20T03:58:59;61.50;;;25.93;;
19919;SDS011;10122;50.074;19.920;2022-11-20T04:01:26;62.83;;;25.80;;
19919;SDS011;10122;50.074;19.920;2022-11-20T04:03:54;66.53;;;26.00;;
19919;SDS011;10122;50.074;19.920;2022-11-20T04:06:22;65.97;;;27.40;;
19919;SDS011;10122;50.074;19.920;2022-11-20T04:08:49;68.80;;;27.87;;
19919;SDS011;10122;50.074;19.920;2022-11-20T04:11:16;65.27;;;26.60;;
19919;SDS011;10122;50.074;19.920;2022-11-20T04:13:46;63.47;;;26.00;;
19919;SDS011;10122;50.074;19.920;2022-11-20T04:16:13;68.23;;;26.50;;
19919;SDS011;10122;50.074;19.920;2022-11-20T04:18:39;73.53;;;28.20;;
19919;SDS011;10122;50.074;19.920;2022-11-20T04:21:05;74.07;;;28.73;;
19919;SDS011;10122;50.074;19.920;2022-11-20T04:23:31;67.17;;;28.07;;
19919;SDS011;10122;50.074;19.920;2022-11-20T04:26:04;70.87;;;28.17;;
19919;SDS011;10122;50.074;19.920;2022-11-20T04:28:32;71.17;;;28.63;;
19919;SDS011;10122;50.074;19.920;2022-11-20T04:31:01;65.53;;;27.87;;
19919;SDS011;10122;50.074;19.920;2022-11-20T04:33:34;69.30;;;28.23;;
19919;SDS011;10122;50.074;19.920;2022-11-20T04:36:05;70.60;;;27.03;;
19919;SDS011;10122;50.074;19.920;2022-11-20T04:38:32;69.83;;;28.30;;
19919;SDS011;10122;50.074;19.920;2022-11-20T04:41:01;66.23;;;27.60;;
19919;SDS011;10122;50.074;19.920;2022-11-20T04:43:31;73.10;;;29.27;;
19919;SDS011;10122;50.074;19.920;2022-11-20T04:45:57;67.57;;;28.37;;
19919;SDS011;10122;50.074;19.920;2022-11-20T04:48:24;66.10;;;27.63;;
19919;SDS011;10122;50.074;19.920;2022-11-20T04:50:51;67.57;;;27.27;;
19919;SDS011;10122;50.074;19.920;2022-11-20T04:53:18;70.73;;;27.77;;
19919;SDS011;10122;50.074;19.920;2022-11-20T04:55:44;71.07;;;27.20;;
19919;SDS011;10122;50.074;19.920;2022-11-20T04:58:10;64.67;;;26.80;;
19919;SDS011;10122;50.074;19.920;2022-11-20T05:00:36;66.87;;;26.83;;
19919;SDS011;10122;50.074;19.920;2022-11-20T05:03:02;63.20;;;26.40;;
19919;SDS011;10122;50.074;19.920;2022-11-20T05:05:27;64.87;;;26.77;;
19919;SDS011;10122;50.074;19.920;2022-11-20T05:07:55;63.70;;;26.40;;
19919;SDS011;10122;50.074;19.920;2022-11-20T05:10:22;66.93;;;26.43;;
19919;SDS011;10122;50.074;19.920;2022-11-20T05:12:48;66.90;;;26.90;;
19919;SDS011;10122;50.074;19.920;2022-11-20T05:15:14;64.97;;;27.20;;
19919;SDS011;10122;50.074;19.920;2022-11-20T05:17:39;68.67;;;25.93;;
19919;SDS011;10122;50.074;19.920;2022-11-20T05:20:05;63.93;;;26.60;;
19919;SDS011;10122;50.074;19.920;2022-11-20T05:22:31;62.63;;;25.60;;
19919;SDS011;10122;50.074;19.920;2022-11-20T05:24:57;61.93;;;25.37;;
19919;SDS011;10122;50.074;19.920;2022-11-20T05:27:22;68.27;;;27.53;;
19919;SDS011;10122;50.074;19.920;2022-11-20T05:29:48;61.63;;;26.50;;
19919;SDS011;10122;50.074;19.920;2022-11-20T05:32:14;67.70;;;26.87;;
19919;SDS011;10122;50.074;19.920;2022-11-20T05:34:39;65.73;;;26.40;;
19919;SDS011;10122;50.074;19.920;2022-11-20T05:37:05;68.23;;;27.37;;
19919;SDS011;10122;50.074;19.920;2022-11-20T05:39:30;67.97;;;26.30;;
19919;SDS011;10122;50.074;19.920;2022-11-20T05:41:56;65.50;;;26.30;;
19919;SDS011;10122;50.074;19.920;2022-11-20T05:44:40;63.47;;;26.73;;
19919;SDS011;10122;50.074;19.920;2022-11-20T05:47:06;62.30;;;25.73;;
19919;SDS011;10122;50.074;19.920;2022-11-20T05:49:32;61.70;;;25.37;;
19919;SDS011;10122;50.074;19.920;2022-11-20T05:51:57;61.50;;;24.30;;
19919;SDS011;10122;50.074;19.920;2022-11-20T05:54:23;60.93;;;24.50;;
19919;SDS011;10122;50.074;19.920;2022-11-20T05:56:49;61.60;;;24.10;;
19919;SDS011;10122;50.074;19.920;2022-11-20T05:59:14;62.13;;;25.23;;
19919;SDS011;10122;50.074;19.920;2022-11-20T06:01:40;61.17;;;24.87;;
19919;SDS011;10122;50.074;19.920;2022-11-20T06:04:06;64.27;;;25.10;;
19919;SDS011;10122;50.074;19.920;2022-11-20T06:06:32;60.13;;;25.13;;
19919;SDS011;10122;50.074;19.920;2022-11-20T06:08:57;64.70;;;25.47;;
19919;SDS011;10122;50.074;19.920;2022-11-20T06:11:24;63.70;;;27.30;;
19919;SDS011;10122;50.074;19.920;2022-11-20T06:13:50;64.83;;;25.63;;
19919;SDS011;10122;50.074;19.920;2022-11-20T06:16:17;68.10;;;26.40;;
19919;SDS011;10122;50.074;19.920;2022-11-20T06:18:43;64.93;;;25.23;;
19919;SDS011;10122;50.074;19.920;2022-11-20T06:21:10;63.23;;;25.00;;
19919;SDS011;10122;50.074;19.920;2022-11-20T06:23:40;65.33;;;25.33;;
19919;SDS011;10122;50.074;19.920;2022-11-20T06:26:08;65.40;;;24.23;;
19919;SDS011;10122;50.074;19.920;2022-11-20T06:28:35;61.07;;;24.23;;
19919;SDS011;10122;50.074;19.920;2022-11-20T06:31:01;62.90;;;24.53;;
19919;SDS011;10122;50.074;19.920;2022-11-20T06:33:27;56.97;;;23.17;;
19919;SDS011;10122;50.074;19.920;2022-11-20T06:35:56;61.50;;;23.63;;
19919;SDS011;10122;50.074;19.920;2022-11-20T06:38:26;61.50;;;24.07;;
19919;SDS011;10122;50.074;19.920;2022-11-20T06:40:52;59.73;;;23.17;;
19919;SDS011;10122;50.074;19.920;2022-11-20T06:43:18;59.67;;;23.60;;
19919;SDS011;10122;50.074;19.920;2022-11-20T06:45:44;59.67;;;23.63;;
19919;SDS011;10122;50.074;19.920;2022-11-20T06:48:10;59.33;;;23.73;;
19919;SDS011;10122;50.074;19.920;2022-11-20T06:50:38;62.77;;;24.67;;
19919;SDS011;10122;50.074;19.920;2022-11-20T06:53:04;57.93;;;23.63;;
19919;SDS011;10122;50.074;19.920;2022-11-20T06:55:30;60.73;;;24.00;;
19919;SDS011;10122;50.074;19.920;2022-11-20T06:57:56;61.67;;;24.73;;
19919;SDS011;10122;50.074;19.920;2022-11-20T07:00:23;60.37;;;24.03;;
19919;SDS011;10122;50.074;19.920;2022-11-20T07:02:49;59.80;;;24.97;;
19919;SDS011;10122;50.074;19.920;2022-11-20T07:05:14;58.50;;;23.90;;
19919;SDS011;10122;50.074;19.920;2022-11-20T07:07:40;58.60;;;23.57;;
19919;SDS011;10122;50.074;19.920;2022-11-20T07:10:06;63.67;;;23.93;;
19919;SDS011;10122;50.074;19.920;2022-11-20T07:12:32;62.67;;;24.50;;
19919;SDS011;10122;50.074;19.920;2022-11-20T07:14:58;65.23;;;24.80;;
19919;SDS011;10122;50.074;19.920;2022-11-20T07:17:23;64.33;;;24.90;;
19919;SDS011;10122;50.074;19.920;2022-11-20T07:19:49;63.50;;;24.47;;
19919;SDS011;10122;50.074;19.920;2022-11-20T07:22:14;61.03;;;24.73;;
19919;SDS011;10122;50.074;19.920;2022-11-20T07:24:40;63.83;;;24.83;;
19919;SDS011;10122;50.074;19.920;2022-11-20T07:27:06;63.00;;;25.10;;
19919;SDS011;10122;50.074;19.920;2022-11-20T07:29:31;55.77;;;23.33;;
19919;SDS011;10122;50.074;19.920;2022-11-20T07:31:57;59.87;;;23.70;;
19919;SDS011;10122;50.074;19.920;2022-11-20T07:34:23;60.17;;;23.90;;
19919;SDS011;10122;50.074;19.920;2022-11-20T07:36:48;61.20;;;24.03;;
19919;SDS011;10122;50.074;19.920;2022-11-20T07:39:14;59.60;;;23.03;;
19919;SDS011;10122;50.074;19.920;2022-11-20T07:41:39;55.23;;;22.77;;
19919;SDS011;10122;50.074;19.920;2022-11-20T07:44:05;72.60;;;26.37;;
19919;SDS011;10122;50.074;19.920;2022-11-20T07:46:31;67.20;;;27.57;;
19919;SDS011;10122;50.074;19.920;2022-11-20T07:48:56;66.20;;;29.13;;
19919;SDS011;10122;50.074;19.920;2022-11-20T07:51:22;72.40;;;27.80;;
19919;SDS011;10122;50.074;19.920;2022-11-20T07:53:50;70.63;;;27.90;;
19919;SDS011;10122;50.074;19.920;2022-11-20T07:56:16;72.60;;;29.67;;
19919;SDS011;10122;50.074;19.920;2022-11-20T07:58:42;76.70;;;29.50;;
19919;SDS011;10122;50.074;19.920;2022-11-20T08:01:08;73.30;;;29.47;;
19919;SDS011;10122;50.074;19.920;2022-11-20T08:03:35;86.57;;;31.67;;
19919;SDS011;10122;50.074;19.920;2022-11-20T08:06:04;85.80;;;31.87;;
19919;SDS011;10122;50.074;19.920;2022-11-20T08:08:29;78.27;;;29.97;;
19919;SDS011;10122;50.074;19.920;2022-11-20T08:10:58;81.40;;;29.77;;
19919;SDS011;10122;50.074;19.920;2022-11-20T08:13:44;83.37;;;30.73;;
19919;SDS011;10122;50.074;19.920;2022-11-20T08:16:28;79.13;;;30.50;;
19919;SDS011;10122;50.074;19.920;2022-11-20T08:18:54;86.30;;;32.17;;
19919;SDS011;10122;50.074;19.920;2022-11-20T08:21:19;86.80;;;32.03;;
19919;SDS011;10122;50.074;19.920;2022-11-20T08:23:45;86.83;;;32.30;;
19919;SDS011;10122;50.074;19.920;2022-11-20T08:26:11;80.53;;;31.53;;
19919;SDS011;10122;50.074;19.920;2022-11-20T08:28:36;94.00;;;33.83;;
19919;SDS011;10122;50.074;19.920;2022-11-20T08:31:02;88.23;;;35.30;;
19919;SDS011;10122;50.074;19.920;2022-11-20T08:33:28;96.37;;;35.07;;
19919;SDS011;10122;50.074;19.920;2022-11-20T08:36:04;104.90;;;37.90;;
19919;SDS011;10122;50.074;19.920;2022-11-20T08:38:30;109.63;;;43.30;;
19919;SDS011;10122;50.074;19.920;2022-11-20T08:40:57;112.20;;;40.33;;
19919;SDS011;10122;50.074;19.920;2022-11-20T08:43:45;106.63;;;38.53;;
19919;SDS011;10122;50.074;19.920;2022-11-20T08:46:11;98.93;;;36.47;;
19919;SDS011;10122;50.074;19.920;2022-11-20T08:48:37;107.77;;;39.70;;
19919;SDS011;10122;50.074;19.920;2022-11-20T08:51:03;105.93;;;37.70;;
19919;SDS011;10122;50.074;19.920;2022-11-20T08:53:29;102.43;;;36.50;;
19919;SDS011;10122;50.074;19.920;2022-11-20T08:55:54;108.33;;;38.33;;
19919;SDS011;10122;50.074;19.920;2022-11-20T08:58:21;99.87;;;35.70;;
19919;SDS011;10122;50.074;19.920;2022-11-20T09:00:47;95.77;;;34.63;;
19919;SDS011;10122;50.074;19.920;2022-11-20T09:03:13;100.63;;;34.93;;
19919;SDS011;10122;50.074;19.920;2022-11-20T09:05:39;91.50;;;33.77;;
19919;SDS011;10122;50.074;19.920;2022-11-20T09:08:04;94.67;;;34.97;;
19919;SDS011;10122;50.074;19.920;2022-11-20T09:10:30;85.07;;;32.50;;
19919;SDS011;10122;50.074;19.920;2022-11-20T09:12:56;94.87;;;33.93;;
19919;SDS011;10122;50.074;19.920;2022-11-20T09:15:22;88.67;;;34.73;;
19919;SDS011;10122;50.074;19.920;2022-11-20T09:17:51;88.47;;;33.50;;
19919;SDS011;10122;50.074;19.920;2022-11-20T09:20:17;94.53;;;35.23;;
19919;SDS011;10122;50.074;19.920;2022-11-20T09:22:43;98.17;;;35.73;;
19919;SDS011;10122;50.074;19.920;2022-11-20T09:25:09;95.37;;;35.67;;
19919;SDS011;10122;50.074;19.920;2022-11-20T09:27:35;93.63;;;34.13;;
19919;SDS011;10122;50.074;19.920;2022-11-20T09:30:01;98.97;;;34.47;;
19919;SDS011;10122;50.074;19.920;2022-11-20T09:32:27;90.30;;;35.00;;
19919;SDS011;10122;50.074;19.920;2022-11-20T09:34:52;93.63;;;34.43;;
19919;SDS011;10122;50.074;19.920;2022-11-20T09:37:18;95.53;;;34.30;;
19919;SDS011;10122;50.074;19.920;2022-11-20T09:39:44;89.67;;;33.40;;
19919;SDS011;10122;50.074;19.920;2022-11-20T09:50:31;92.83;;;34.17;;
19919;SDS011;10122;50.074;19.920;2022-11-20T09:56:06;87.37;;;33.07;;
19919;SDS011;10122;50.074;19.920;2022-11-20T09:58:40;87.80;;;33.93;;
19919;SDS011;10122;50.074;19.920;2022-11-20T10:01:10;89.33;;;32.90;;
19919;SDS011;10122;50.074;19.920;2022-11-20T10:06:44;85.07;;;33.97;;
19919;SDS011;10122;50.074;19.920;2022-11-20T10:09:37;88.17;;;34.63;;
19919;SDS011;10122;50.074;19.920;2022-11-20T10:25:50;84.70;;;34.33;;
19919;SDS011;10122;50.074;19.920;2022-11-20T10:28:30;86.30;;;33.80;;
19919;SDS011;10122;50.074;19.920;2022-11-20T10:31:25;85.63;;;33.63;;
19919;SDS011;10122;50.074;19.920;2022-11-20T10:33:58;80.93;;;33.57;;
19919;SDS011;10122;50.074;19.920;2022-11-20T10:36:30;96.77;;;35.43;;
19919;SDS011;10122;50.074;19.920;2022-11-20T10:39:03;92.50;;;35.30;;
19919;SDS011;10122;50.074;19.920;2022-11-20T10:41:32;86.97;;;35.47;;
19919;SDS011;10122;50.074;19.920;2022-11-20T10:47:04;87.53;;;34.03;;
19919;SDS011;10122;50.074;19.920;2022-11-20T10:49:34;89.83;;;34.83;;
19919;SDS011;10122;50.074;19.920;2022-11-20T10:54:43;86.57;;;33.70;;
19919;SDS011;10122;50.074;19.920;2022-11-20T11:00:18;95.60;;;34.90;;
19919;SDS011;10122;50.074;19.920;2022-11-20T11:02:46;79.10;;;33.00;;
19919;SDS011;10122;50.074;19.920;2022-11-20T11:05:20;90.17;;;34.53;;
19919;SDS011;10122;50.074;19.920;2022-11-20T11:07:59;92.93;;;35.30;;
19919;SDS011;10122;50.074;19.920;2022-11-20T11:10:28;88.97;;;35.53;;
19919;SDS011;10122;50.074;19.920;2022-11-20T11:13:02;94.80;;;34.03;;
19919;SDS011;10122;50.074;19.920;2022-11-20T11:15:38;84.47;;;33.27;;
19919;SDS011;10122;50.074;19.920;2022-11-20T11:18:05;86.50;;;34.13;;
19919;SDS011;10122;50.074;19.920;2022-11-20T11:20:33;84.90;;;33.67;;
19919;SDS011;10122;50.074;19.920;2022-11-20T11:22:59;92.63;;;35.33;;
19919;SDS011;10122;50.074;19.920;2022-11-20T11:25:26;96.23;;;35.70;;
19919;SDS011;10122;50.074;19.920;2022-11-20T11:27:53;92.80;;;35.27;;
19919;SDS011;10122;50.074;19.920;2022-11-20T11:30:21;100.40;;;37.30;;
19919;SDS011;10122;50.074;19.920;2022-11-20T11:32:48;101.70;;;36.90;;
19919;SDS011;10122;50.074;19.920;2022-11-20T11:38:02;95.63;;;36.23;;
19919;SDS011;10122;50.074;19.920;2022-11-20T11:40:31;100.87;;;36.53;;
19919;SDS011;10122;50.074;19.920;2022-11-20T11:43:02;106.33;;;38.10;;
19919;SDS011;10122;50.074;19.920;2022-11-20T11:45:54;103.03;;;38.07;;
19919;SDS011;10122;50.074;19.920;2022-11-20T11:48:21;95.53;;;37.90;;
19919;SDS011;10122;50.074;19.920;2022-11-20T11:50:50;102.13;;;37.83;;
19919;SDS011;10122;50.074;19.920;2022-11-20T11:53:17;108.17;;;38.07;;
19919;SDS011;10122;50.074;19.920;2022-11-20T12:01:02;98.67;;;36.27;;
19919;SDS011;10122;50.074;19.920;2022-11-20T12:03:42;95.17;;;36.20;;
19919;SDS011;10122;50.074;19.920;2022-11-20T12:06:18;101.10;;;35.30;;
19919;SDS011;10122;50.074;19.920;2022-11-20T12:08:54;94.60;;;35.93;;
19919;SDS011;10122;50.074;19.920;2022-11-20T12:11:29;96.47;;;35.93;;
19919;SDS011;10122;50.074;19.920;2022-11-20T12:14:01;97.87;;;36.53;;
19919;SDS011;10122;50.074;19.920;2022-11-20T12:16:35;97.47;;;35.63;;
19919;SDS011;10122;50.074;19.920;2022-11-20T12:19:03;97.07;;;36.87;;
19919;SDS011;10122;50.074;19.920;2022-11-20T12:29:50;86.13;;;33.57;;
19919;SDS011;10122;50.074;19.920;2022-11-20T12:40:41;93.27;;;34.37;;
19919;SDS011;10122;50.074;19.920;2022-11-20T12:49:12;88.50;;;34.37;;
19919;SDS011;10122;50.074;19.920;2022-11-20T12:57:52;82.37;;;31.73;;
19919;SDS011;10122;50.074;19.920;2022-11-20T13:00:41;87.10;;;31.97;;
19919;SDS011;10122;50.074;19.920;2022-11-20T13:03:36;85.70;;;31.80;;
19919;SDS011;10122;50.074;19.920;2022-11-20T13:06:12;82.03;;;32.17;;
19919;SDS011;10122;50.074;19.920;2022-11-20T13:08:42;81.93;;;32.73;;
19919;SDS011;10122;50.074;19.920;2022-11-20T13:17:17;92.47;;;33.83;;
19919;SDS011;10122;50.074;19.920;2022-11-20T13:19:55;89.20;;;33.20;;
19919;SDS011;10122;50.074;19.920;2022-11-20T13:22:24;84.17;;;31.63;;
19919;SDS011;10122;50.074;19.920;2022-11-20T13:24:55;76.43;;;30.53;;
19919;SDS011;10122;50.074;19.920;2022-11-20T13:27:21;85.30;;;32.40;;
19919;SDS011;10122;50.074;19.920;2022-11-20T13:30:02;82.73;;;32.33;;
19919;SDS011;10122;50.074;19.920;2022-11-20T13:32:47;83.73;;;31.17;;
19919;SDS011;10122;50.074;19.920;2022-11-20T13:35:32;84.80;;;32.53;;
19919;SDS011;10122;50.074;19.920;2022-11-20T13:38:04;82.77;;;31.30;;
19919;SDS011;10122;50.074;19.920;2022-11-20T13:40:38;83.17;;;32.33;;
19919;SDS011;10122;50.074;19.920;2022-11-20T13:46:03;80.53;;;33.67;;
19919;SDS011;10122;50.074;19.920;2022-11-20T13:48:31;82.10;;;32.30;;
19919;SDS011;10122;50.074;19.920;2022-11-20T14:01:21;84.77;;;33.30;;
19919;SDS011;10122;50.074;19.920;2022-11-20T14:03:49;95.03;;;34.33;;
19919;SDS011;10122;50.074;19.920;2022-11-20T14:06:26;87.27;;;33.67;;
19919;SDS011;10122;50.074;19.920;2022-11-20T14:08:54;90.13;;;33.70;;
19919;SDS011;10122;50.074;19.920;2022-11-20T14:11:27;86.83;;;34.10;;
19919;SDS011;10122;50.074;19.920;2022-11-20T14:13:56;95.93;;;35.03;;
19919;SDS011;10122;50.074;19.920;2022-11-20T14:16:41;87.47;;;33.47;;
19919;SDS011;10122;50.074;19.920;2022-11-20T14:21:44;88.57;;;34.00;;
19919;SDS011;10122;50.074;19.920;2022-11-20T14:24:10;81.97;;;32.60;;
19919;SDS011;10122;50.074;19.920;2022-11-20T14:26:37;85.23;;;33.23;;
19919;SDS011;10122;50.074;19.920;2022-11-20T14:31:41;74.87;;;30.43;;
19919;SDS011;10122;50.074;19.920;2022-11-20T14:34:17;76.27;;;32.00;;
19919;SDS011;10122;50.074;19.920;2022-11-20T14:36:46;81.90;;;32.07;;
19919;SDS011;10122;50.074;19.920;2022-11-20T14:39:22;85.60;;;32.33;;
19919;SDS011;10122;50.074;19.920;2022-11-20T14:41:54;85.83;;;33.07;;
19919;SDS011;10122;50.074;19.920;2022-11-20T14:44:21;84.30;;;32.73;;
19919;SDS011;10122;50.074;19.920;2022-11-20T14:46:51;84.30;;;33.47;;
19919;SDS011;10122;50.074;19.920;2022-11-20T14:49:17;88.00;;;32.87;;
19919;SDS011;10122;50.074;19.920;2022-11-20T14:51:43;88.97;;;32.93;;
19919;SDS011;10122;50.074;19.920;2022-11-20T14:54:12;84.77;;;32.40;;
19919;SDS011;10122;50.074;19.920;2022-11-20T14:56:40;80.17;;;30.90;;
19919;SDS011;10122;50.074;19.920;2022-11-20T14:59:08;75.67;;;29.83;;
19919;SDS011;10122;50.074;19.920;2022-11-20T15:01:34;75.10;;;29.97;;
19919;SDS011;10122;50.074;19.920;2022-11-20T15:04:04;75.20;;;29.00;;
19919;SDS011;10122;50.074;19.920;2022-11-20T15:06:36;80.60;;;28.43;;
19919;SDS011;10122;50.074;19.920;2022-11-20T15:09:14;68.63;;;26.77;;
19919;SDS011;10122;50.074;19.920;2022-11-20T15:11:40;63.00;;;25.47;;
19919;SDS011;10122;50.074;19.920;2022-11-20T15:14:24;70.70;;;26.73;;
19919;SDS011;10122;50.074;19.920;2022-11-20T15:16:51;65.33;;;25.37;;
19919;SDS011;10122;50.074;19.920;2022-11-20T15:19:19;70.23;;;26.10;;
19919;SDS011;10122;50.074;19.920;2022-11-20T15:21:47;67.97;;;26.10;;
19919;SDS011;10122;50.074;19.920;2022-11-20T15:24:12;77.03;;;28.87;;
19919;SDS011;10122;50.074;19.920;2022-11-20T15:26:39;80.87;;;29.30;;
19919;SDS011;10122;50.074;19.920;2022-11-20T15:29:06;87.73;;;33.27;;
19919;SDS011;10122;50.074;19.920;2022-11-20T15:31:35;91.90;;;34.63;;
19919;SDS011;10122;50.074;19.920;2022-11-20T15:34:02;96.20;;;33.87;;
19919;SDS011;10122;50.074;19.920;2022-11-20T15:36:28;104.60;;;40.93;;
19919;SDS011;10122;50.074;19.920;2022-11-20T15:38:53;99.63;;;35.70;;
19919;SDS011;10122;50.074;19.920;2022-11-20T15:41:19;98.20;;;36.80;;
19919;SDS011;10122;50.074;19.920;2022-11-20T15:43:45;101.87;;;36.13;;
19919;SDS011;10122;50.074;19.920;2022-11-20T15:46:12;102.93;;;37.07;;
19919;SDS011;10122;50.074;19.920;2022-11-20T15:48:52;101.90;;;37.93;;
19919;SDS011;10122;50.074;19.920;2022-11-20T15:53:54;104.53;;;39.57;;
19919;SDS011;10122;50.074;19.920;2022-11-20T15:56:20;100.13;;;39.30;;
19919;SDS011;10122;50.074;19.920;2022-11-20T15:58:45;118.20;;;42.63;;
19919;SDS011;10122;50.074;19.920;2022-11-20T16:01:12;108.03;;;42.60;;